sensor_id;sensor_type;location;lat;lon;timestamp;temperature;humidity
39371;DHT22;25099;51.946;4.838;2022-12-20T00:01:21;8.90;99.90
39371;DHT22;25099;51.946;4.838;2022-12-20T00:03:51;8.90;99.90
39371;DHT22;25099;51.946;4.838;2022-12-20T00:06:18;8.90;99.90
39371;DHT22;25099;51.946;4.838;2022-12-20T00:08:44;8.90;99.90
39371;DHT22;25099;51.946;4.838;2022-12-20T00:11:10;8.90;99.90
39371;DHT22;25099;51.946;4.838;2022-12-20T00:13:37;8.80;99.90
39371;DHT22;25099;51.946;4.838;2022-12-20T00:16:04;8.80;99.90
39371;DHT22;25099;51.946;4.838;2022-12-20T00:18:30;8.80;99.90
39371;DHT22;25099;51.946;4.838;2022-12-20T00:21:00;8.80;99.90
39371;DHT22;25099;51.946;4.838;2022-12-20T00:23:26;8.80;99.90
39371;DHT22;25099;51.946;4.838;2022-12-20T00:25:52;8.80;99.90
39371;DHT22;25099;51.946;4.838;2022-12-20T00:28:17;8.90;99.90
39371;DHT22;25099;51.946;4.838;2022-12-20T00:30:43;8.90;99.90
39371;DHT22;25099;51.946;4.838;2022-12-20T00:33:09;9.00;99.90
39371;DHT22;25099;51.946;4.838;2022-12-20T00:35:34;8.90;99.90
39371;DHT22;25099;51.946;4.838;2022-12-20T00:38:00;9.00;99.90
39371;DHT22;25099;51.946;4.838;2022-12-20T00:40:25;9.00;99.90
39371;DHT22;25099;51.946;4.838;2022-12-20T00:42:51;9.10;99.90
39371;DHT22;25099;51.946;4.838;2022-12-20T00:45:16;9.20;99.90
39371;DHT22;25099;51.946;4.838;2022-12-20T00:47:42;9.20;99.90
39371;DHT22;25099;51.946;4.838;2022-12-20T00:50:08;9.20;99.90
39371;DHT22;25099;51.946;4.838;2022-12-20T00:52:33;9.20;99.90
39371;DHT22;25099;51.946;4.838;2022-12-20T00:54:59;9.20;99.90
39371;DHT22;25099;51.946;4.838;2022-12-20T00:57:24;9.20;99.90
39371;DHT22;25099;51.946;4.838;2022-12-20T00:59:50;9.20;99.90
39371;DHT22;25099;51.946;4.838;2022-12-20T01:02:15;9.20;99.90
39371;DHT22;25099;51.946;4.838;2022-12-20T01:04:41;9.20;99.90
39371;DHT22;25099;51.946;4.838;2022-12-20T01:07:07;9.30;99.90
39371;DHT22;25099;51.946;4.838;2022-12-20T01:09:32;9.30;99.90
39371;DHT22;25099;51.946;4.838;2022-12-20T01:11:58;9.30;99.90
39371;DHT22;25099;51.946;4.838;2022-12-20T01:14:24;9.30;99.90
39371;DHT22;25099;51.946;4.838;2022-12-20T01:16:49;9.30;99.90
39371;DHT22;25099;51.946;4.838;2022-12-20T01:19:16;9.20;99.90
39371;DHT22;25099;51.946;4.838;2022-12-20T01:21:42;9.20;99.90
39371;DHT22;25099;51.946;4.838;2022-12-20T01:24:12;9.20;99.90
39371;DHT22;25099;51.946;4.838;2022-12-20T01:26:39;9.30;99.90
39371;DHT22;25099;51.946;4.838;2022-12-20T01:29:04;9.30;99.90
39371;DHT22;25099;51.946;4.838;2022-12-20T01:31:30;9.30;99.90
39371;DHT22;25099;51.946;4.838;2022-12-20T01:33:56;9.30;99.90
39371;DHT22;25099;51.946;4.838;2022-12-20T01:36:27;9.20;99.90
39371;DHT22;25099;51.946;4.838;2022-12-20T01:39:02;9.10;99.90
39371;DHT22;25099;51.946;4.838;2022-12-20T01:41:29;9.10;99.90
39371;DHT22;25099;51.946;4.838;2022-12-20T01:44:47;9.20;99.90
39371;DHT22;25099;51.946;4.838;2022-12-20T01:46:51;9.10;99.90
39371;DHT22;25099;51.946;4.838;2022-12-20T01:49:30;9.10;99.90
39371;DHT22;25099;51.946;4.838;2022-12-20T01:54:37;9.00;99.90
39371;DHT22;25099;51.946;4.838;2022-12-20T01:57:10;9.00;99.90
39371;DHT22;25099;51.946;4.838;2022-12-20T01:59:38;8.90;99.90
39371;DHT22;25099;51.946;4.838;2022-12-20T02:02:07;9.00;99.90
39371;DHT22;25099;51.946;4.838;2022-12-20T02:04:34;9.00;99.90
39371;DHT22;25099;51.946;4.838;2022-12-20T02:07:01;9.10;99.90
39371;DHT22;25099;51.946;4.838;2022-12-20T02:09:28;9.10;99.90
39371;DHT22;25099;51.946;4.838;2022-12-20T02:20:38;9.20;99.90
39371;DHT22;25099;51.946;4.838;2022-12-20T02:34:14;9.30;99.90
39371;DHT22;25099;51.946;4.838;2022-12-20T02:36:41;9.30;99.90
39371;DHT22;25099;51.946;4.838;2022-12-20T02:39:07;9.30;99.90
39371;DHT22;25099;51.946;4.838;2022-12-20T02:41:43;9.30;99.90
39371;DHT22;25099;51.946;4.838;2022-12-20T02:44:14;9.30;99.90
39371;DHT22;25099;51.946;4.838;2022-12-20T02:47:00;9.20;99.90
39371;DHT22;25099;51.946;4.838;2022-12-20T02:49:30;9.20;99.90
39371;DHT22;25099;51.946;4.838;2022-12-20T02:51:59;9.10;99.90
39371;DHT22;25099;51.946;4.838;2022-12-20T02:54:26;9.00;99.90
39371;DHT22;25099;51.946;4.838;2022-12-20T02:57:18;9.00;99.90
39371;DHT22;25099;51.946;4.838;2022-12-20T03:02:19;9.00;99.90
39371;DHT22;25099;51.946;4.838;2022-12-20T03:04:46;9.00;99.90
39371;DHT22;25099;51.946;4.838;2022-12-20T03:07:13;9.00;99.90
39371;DHT22;25099;51.946;4.838;2022-12-20T03:09:41;9.10;99.90
39371;DHT22;25099;51.946;4.838;2022-12-20T03:12:08;9.00;99.90
39371;DHT22;25099;51.946;4.838;2022-12-20T03:14:36;9.00;99.90
39371;DHT22;25099;51.946;4.838;2022-12-20T03:17:02;9.10;99.90
39371;DHT22;25099;51.946;4.838;2022-12-20T03:19:28;9.10;99.90
39371;DHT22;25099;51.946;4.838;2022-12-20T03:21:54;9.20;99.90
39371;DHT22;25099;51.946;4.838;2022-12-20T03:24:20;9.10;99.90
39371;DHT22;25099;51.946;4.838;2022-12-20T03:26:45;9.20;99.90
39371;DHT22;25099;51.946;4.838;2022-12-20T03:29:11;9.30;99.90
39371;DHT22;25099;51.946;4.838;2022-12-20T03:31:37;9.20;99.90
39371;DHT22;25099;51.946;4.838;2022-12-20T03:34:02;9.20;99.90
39371;DHT22;25099;51.946;4.838;2022-12-20T03:36:29;9.20;99.90
39371;DHT22;25099;51.946;4.838;2022-12-20T03:38:55;9.20;99.90
39371;DHT22;25099;51.946;4.838;2022-12-20T03:41:21;9.30;99.90
39371;DHT22;25099;51.946;4.838;2022-12-20T03:43:47;9.20;99.90
39371;DHT22;25099;51.946;4.838;2022-12-20T03:46:14;9.30;99.90
39371;DHT22;25099;51.946;4.838;2022-12-20T03:48:40;9.40;99.90
39371;DHT22;25099;51.946;4.838;2022-12-20T03:51:05;9.50;99.90
39371;DHT22;25099;51.946;4.838;2022-12-20T03:53:32;9.60;99.90
39371;DHT22;25099;51.946;4.838;2022-12-20T03:55:57;9.70;99.90
39371;DHT22;25099;51.946;4.838;2022-12-20T03:58:23;9.70;99.90
39371;DHT22;25099;51.946;4.838;2022-12-20T04:00:48;9.70;99.90
39371;DHT22;25099;51.946;4.838;2022-12-20T04:03:14;9.80;99.90
39371;DHT22;25099;51.946;4.838;2022-12-20T04:05:41;9.80;99.90
39371;DHT22;25099;51.946;4.838;2022-12-20T04:08:06;9.80;99.90
39371;DHT22;25099;51.946;4.838;2022-12-20T04:10:32;9.90;99.90
39371;DHT22;25099;51.946;4.838;2022-12-20T04:13:19;9.90;99.90
39371;DHT22;25099;51.946;4.838;2022-12-20T04:15:45;9.90;99.90
39371;DHT22;25099;51.946;4.838;2022-12-20T04:18:10;10.00;99.90
39371;DHT22;25099;51.946;4.838;2022-12-20T04:20:36;10.00;99.90
39371;DHT22;25099;51.946;4.838;2022-12-20T04:23:01;9.90;99.90
39371;DHT22;25099;51.946;4.838;2022-12-20T04:25:27;10.00;99.90
39371;DHT22;25099;51.946;4.838;2022-12-20T04:27:52;10.10;99.90
39371;DHT22;25099;51.946;4.838;2022-12-20T04:30:18;10.10;99.90
39371;DHT22;25099;51.946;4.838;2022-12-20T04:32:44;10.10;99.90
39371;DHT22;25099;51.946;4.838;2022-12-20T04:35:09;10.10;99.90
39371;DHT22;25099;51.946;4.838;2022-12-20T04:37:35;10.10;99.90
39371;DHT22;25099;51.946;4.838;2022-12-20T04:40:01;10.10;99.90
39371;DHT22;25099;51.946;4.838;2022-12-20T04:42:26;10.10;99.90
39371;DHT22;25099;51.946;4.838;2022-12-20T04:44:52;10.10;99.90
39371;DHT22;25099;51.946;4.838;2022-12-20T04:47:17;10.10;99.90
39371;DHT22;25099;51.946;4.838;2022-12-20T04:49:43;10.30;99.90
39371;DHT22;25099;51.946;4.838;2022-12-20T04:52:09;10.00;99.90
39371;DHT22;25099;51.946;4.838;2022-12-20T04:54:53;10.00;99.90
39371;DHT22;25099;51.946;4.838;2022-12-20T04:57:20;10.00;99.90
39371;DHT22;25099;51.946;4.838;2022-12-20T04:59:45;10.00;99.90
39371;DHT22;25099;51.946;4.838;2022-12-20T05:02:11;10.00;99.90
39371;DHT22;25099;51.946;4.838;2022-12-20T05:04:36;10.00;99.90
39371;DHT22;25099;51.946;4.838;2022-12-20T05:07:02;10.00;99.90
39371;DHT22;25099;51.946;4.838;2022-12-20T05:09:28;10.00;99.90
39371;DHT22;25099;51.946;4.838;2022-12-20T05:11:53;10.00;99.90
39371;DHT22;25099;51.946;4.838;2022-12-20T05:14:19;10.10;99.90
39371;DHT22;25099;51.946;4.838;2022-12-20T05:16:44;10.00;99.90
39371;DHT22;25099;51.946;4.838;2022-12-20T05:19:10;10.00;99.90
39371;DHT22;25099;51.946;4.838;2022-12-20T05:21:35;10.10;99.90
39371;DHT22;25099;51.946;4.838;2022-12-20T05:24:20;10.00;99.90
39371;DHT22;25099;51.946;4.838;2022-12-20T05:27:04;10.00;99.90
39371;DHT22;25099;51.946;4.838;2022-12-20T05:29:29;9.90;99.90
39371;DHT22;25099;51.946;4.838;2022-12-20T05:31:55;9.90;99.90
39371;DHT22;25099;51.946;4.838;2022-12-20T05:34:20;9.90;99.90
39371;DHT22;25099;51.946;4.838;2022-12-20T05:36:46;9.90;99.90
39371;DHT22;25099;51.946;4.838;2022-12-20T05:39:12;9.80;99.90
39371;DHT22;25099;51.946;4.838;2022-12-20T05:41:37;9.80;99.90
39371;DHT22;25099;51.946;4.838;2022-12-20T05:44:05;9.80;99.90
39371;DHT22;25099;51.946;4.838;2022-12-20T05:46:34;9.70;99.90
39371;DHT22;25099;51.946;4.838;2022-12-20T05:48:59;9.80;99.90
39371;DHT22;25099;51.946;4.838;2022-12-20T05:51:25;9.80;99.90
39371;DHT22;25099;51.946;4.838;2022-12-20T05:53:50;9.80;99.90
39371;DHT22;25099;51.946;4.838;2022-12-20T05:56:16;9.80;99.90
39371;DHT22;25099;51.946;4.838;2022-12-20T05:58:42;9.80;99.90
39371;DHT22;25099;51.946;4.838;2022-12-20T06:01:08;9.80;99.90
39371;DHT22;25099;51.946;4.838;2022-12-20T06:03:35;9.80;99.90
39371;DHT22;25099;51.946;4.838;2022-12-20T06:06:01;9.70;99.90
39371;DHT22;25099;51.946;4.838;2022-12-20T06:08:26;9.80;99.90
39371;DHT22;25099;51.946;4.838;2022-12-20T06:10:52;9.70;99.90
39371;DHT22;25099;51.946;4.838;2022-12-20T06:13:18;9.70;99.90
39371;DHT22;25099;51.946;4.838;2022-12-20T06:15:43;9.80;99.90
39371;DHT22;25099;51.946;4.838;2022-12-20T06:18:09;9.80;99.90
39371;DHT22;25099;51.946;4.838;2022-12-20T06:20:36;9.70;99.90
39371;DHT22;25099;51.946;4.838;2022-12-20T06:23:02;9.70;99.90
39371;DHT22;25099;51.946;4.838;2022-12-20T06:25:29;9.70;99.90
39371;DHT22;25099;51.946;4.838;2022-12-20T06:27:54;9.80;99.90
39371;DHT22;25099;51.946;4.838;2022-12-20T06:30:20;9.80;99.90
39371;DHT22;25099;51.946;4.838;2022-12-20T06:32:46;9.80;99.90
39371;DHT22;25099;51.946;4.838;2022-12-20T06:35:13;9.80;99.90
39371;DHT22;25099;51.946;4.838;2022-12-20T06:37:40;9.80;99.90
39371;DHT22;25099;51.946;4.838;2022-12-20T06:40:11;9.80;99.90
39371;DHT22;25099;51.946;4.838;2022-12-20T06:42:37;9.80;99.90
39371;DHT22;25099;51.946;4.838;2022-12-20T06:45:06;9.80;99.90
39371;DHT22;25099;51.946;4.838;2022-12-20T06:47:31;9.90;99.90
39371;DHT22;25099;51.946;4.838;2022-12-20T06:49:57;9.90;99.90
39371;DHT22;25099;51.946;4.838;2022-12-20T06:52:23;9.90;99.90
39371;DHT22;25099;51.946;4.838;2022-12-20T06:54:48;9.90;99.90
39371;DHT22;25099;51.946;4.838;2022-12-20T06:57:14;10.00;99.90
39371;DHT22;25099;51.946;4.838;2022-12-20T06:59:40;10.00;99.90
39371;DHT22;25099;51.946;4.838;2022-12-20T07:02:06;10.00;99.90
39371;DHT22;25099;51.946;4.838;2022-12-20T07:04:31;10.00;99.90
39371;DHT22;25099;51.946;4.838;2022-12-20T07:06:57;10.10;99.90
39371;DHT22;25099;51.946;4.838;2022-12-20T07:09:23;10.10;99.90
39371;DHT22;25099;51.946;4.838;2022-12-20T07:11:48;10.10;99.90
39371;DHT22;25099;51.946;4.838;2022-12-20T07:14:14;10.10;99.90
39371;DHT22;25099;51.946;4.838;2022-12-20T07:16:40;10.20;99.90
39371;DHT22;25099;51.946;4.838;2022-12-20T07:19:10;10.20;99.90
39371;DHT22;25099;51.946;4.838;2022-12-20T07:21:36;10.20;99.90
39371;DHT22;25099;51.946;4.838;2022-12-20T07:24:02;10.20;99.90
39371;DHT22;25099;51.946;4.838;2022-12-20T07:26:27;10.30;99.90
39371;DHT22;25099;51.946;4.838;2022-12-20T07:28:53;10.30;99.90
39371;DHT22;25099;51.946;4.838;2022-12-20T07:31:19;10.30;99.90
39371;DHT22;25099;51.946;4.838;2022-12-20T07:33:45;10.30;99.90
39371;DHT22;25099;51.946;4.838;2022-12-20T07:36:11;10.30;99.90
39371;DHT22;25099;51.946;4.838;2022-12-20T07:38:37;10.30;99.90
39371;DHT22;25099;51.946;4.838;2022-12-20T07:41:15;10.20;99.90
39371;DHT22;25099;51.946;4.838;2022-12-20T07:43:41;10.20;99.90
39371;DHT22;25099;51.946;4.838;2022-12-20T07:46:08;10.20;99.90
39371;DHT22;25099;51.946;4.838;2022-12-20T07:48:36;10.20;99.90
39371;DHT22;25099;51.946;4.838;2022-12-20T07:51:08;10.20;99.90
39371;DHT22;25099;51.946;4.838;2022-12-20T07:53:38;10.20;99.90
39371;DHT22;25099;51.946;4.838;2022-12-20T07:56:06;10.20;99.90
39371;DHT22;25099;51.946;4.838;2022-12-20T07:58:34;10.20;99.90
39371;DHT22;25099;51.946;4.838;2022-12-20T08:01:00;10.10;99.90
39371;DHT22;25099;51.946;4.838;2022-12-20T08:03:30;10.10;99.90
39371;DHT22;25099;51.946;4.838;2022-12-20T08:05:59;10.10;99.90
39371;DHT22;25099;51.946;4.838;2022-12-20T08:08:29;10.10;99.90
39371;DHT22;25099;51.946;4.838;2022-12-20T08:10:56;10.10;99.90
39371;DHT22;25099;51.946;4.838;2022-12-20T08:13:22;10.10;99.90
39371;DHT22;25099;51.946;4.838;2022-12-20T08:15:59;10.10;99.90
39371;DHT22;25099;51.946;4.838;2022-12-20T08:18:24;10.20;99.90
39371;DHT22;25099;51.946;4.838;2022-12-20T08:20:50;10.20;99.90
39371;DHT22;25099;51.946;4.838;2022-12-20T08:23:16;10.10;99.90
39371;DHT22;25099;51.946;4.838;2022-12-20T08:25:41;10.20;99.90
39371;DHT22;25099;51.946;4.838;2022-12-20T08:28:07;10.20;99.90
39371;DHT22;25099;51.946;4.838;2022-12-20T08:30:33;10.20;99.90
39371;DHT22;25099;51.946;4.838;2022-12-20T08:32:59;10.20;99.90
39371;DHT22;25099;51.946;4.838;2022-12-20T08:35:24;10.20;99.90
39371;DHT22;25099;51.946;4.838;2022-12-20T08:37:51;10.20;99.90
39371;DHT22;25099;51.946;4.838;2022-12-20T08:40:17;10.20;99.90
39371;DHT22;25099;51.946;4.838;2022-12-20T08:42:43;10.20;99.90
39371;DHT22;25099;51.946;4.838;2022-12-20T08:45:09;10.30;99.90
39371;DHT22;25099;51.946;4.838;2022-12-20T08:47:35;10.30;99.90
39371;DHT22;25099;51.946;4.838;2022-12-20T08:50:01;10.30;99.90
39371;DHT22;25099;51.946;4.838;2022-12-20T08:52:28;10.30;99.90
39371;DHT22;25099;51.946;4.838;2022-12-20T08:54:54;10.30;99.90
39371;DHT22;25099;51.946;4.838;2022-12-20T08:57:19;10.30;99.90
39371;DHT22;25099;51.946;4.838;2022-12-20T08:59:45;10.30;99.90
39371;DHT22;25099;51.946;4.838;2022-12-20T09:02:11;10.30;99.90
39371;DHT22;25099;51.946;4.838;2022-12-20T09:04:37;10.30;99.90
39371;DHT22;25099;51.946;4.838;2022-12-20T09:07:02;10.30;99.90
39371;DHT22;25099;51.946;4.838;2022-12-20T09:09:28;10.30;99.90
39371;DHT22;25099;51.946;4.838;2022-12-20T09:11:54;10.20;99.90
39371;DHT22;25099;51.946;4.838;2022-12-20T09:14:20;10.20;99.90
39371;DHT22;25099;51.946;4.838;2022-12-20T09:16:46;10.20;99.90
39371;DHT22;25099;51.946;4.838;2022-12-20T09:19:15;10.20;99.90
39371;DHT22;25099;51.946;4.838;2022-12-20T09:21:40;10.20;99.90
39371;DHT22;25099;51.946;4.838;2022-12-20T09:24:07;10.20;99.90
39371;DHT22;25099;51.946;4.838;2022-12-20T09:26:33;10.30;99.90
39371;DHT22;25099;51.946;4.838;2022-12-20T09:29:02;10.20;99.90
39371;DHT22;25099;51.946;4.838;2022-12-20T09:31:28;10.30;99.90
39371;DHT22;25099;51.946;4.838;2022-12-20T09:33:55;10.30;99.90
39371;DHT22;25099;51.946;4.838;2022-12-20T09:36:23;10.30;99.90
39371;DHT22;25099;51.946;4.838;2022-12-20T09:38:49;10.20;99.90
39371;DHT22;25099;51.946;4.838;2022-12-20T09:41:28;10.30;99.90
39371;DHT22;25099;51.946;4.838;2022-12-20T09:43:54;10.30;99.90
39371;DHT22;25099;51.946;4.838;2022-12-20T09:46:21;10.30;99.90
39371;DHT22;25099;51.946;4.838;2022-12-20T09:48:48;10.30;99.90
39371;DHT22;25099;51.946;4.838;2022-12-20T09:59:34;10.40;99.90
39371;DHT22;25099;51.946;4.838;2022-12-20T10:02:00;10.40;99.90
39371;DHT22;25099;51.946;4.838;2022-12-20T10:04:28;10.50;99.90
39371;DHT22;25099;51.946;4.838;2022-12-20T10:07:21;10.50;99.90
39371;DHT22;25099;51.946;4.838;2022-12-20T10:12:46;10.50;99.90
39371;DHT22;25099;51.946;4.838;2022-12-20T10:25:52;10.50;99.90
39371;DHT22;25099;51.946;4.838;2022-12-20T10:28:18;10.60;99.90
39371;DHT22;25099;51.946;4.838;2022-12-20T10:30:45;10.50;99.90
39371;DHT22;25099;51.946;4.838;2022-12-20T10:33:18;10.50;99.90
39371;DHT22;25099;51.946;4.838;2022-12-20T10:35:45;10.60;99.90
39371;DHT22;25099;51.946;4.838;2022-12-20T10:38:12;10.50;99.90
39371;DHT22;25099;51.946;4.838;2022-12-20T10:40:42;10.50;99.90
39371;DHT22;25099;51.946;4.838;2022-12-20T10:43:15;10.60;99.90
39371;DHT22;25099;51.946;4.838;2022-12-20T10:45:43;10.60;99.90
39371;DHT22;25099;51.946;4.838;2022-12-20T10:48:36;10.50;99.90
39371;DHT22;25099;51.946;4.838;2022-12-20T10:58:55;10.60;99.90
39371;DHT22;25099;51.946;4.838;2022-12-20T11:01:25;10.60;99.90
39371;DHT22;25099;51.946;4.838;2022-12-20T11:03:57;10.60;99.90
39371;DHT22;25099;51.946;4.838;2022-12-20T11:09:36;10.50;99.90
39371;DHT22;25099;51.946;4.838;2022-12-20T11:12:14;10.50;99.90
39371;DHT22;25099;51.946;4.838;2022-12-20T11:14:45;10.50;99.90
39371;DHT22;25099;51.946;4.838;2022-12-20T11:17:18;10.50;99.90
39371;DHT22;25099;51.946;4.838;2022-12-20T11:25:29;10.50;99.90
39371;DHT22;25099;51.946;4.838;2022-12-20T11:28:22;10.50;99.90
39371;DHT22;25099;51.946;4.838;2022-12-20T11:31:04;10.50;99.90
39371;DHT22;25099;51.946;4.838;2022-12-20T11:44:48;10.60;99.90
39371;DHT22;25099;51.946;4.838;2022-12-20T11:47:48;10.60;99.90
39371;DHT22;25099;51.946;4.838;2022-12-20T11:50:34;10.60;99.90
39371;DHT22;25099;51.946;4.838;2022-12-20T11:56:04;10.60;99.90
39371;DHT22;25099;51.946;4.838;2022-12-20T12:01:28;10.60;99.90
39371;DHT22;25099;51.946;4.838;2022-12-20T12:09:42;10.60;99.90
39371;DHT22;25099;51.946;4.838;2022-12-20T12:12:52;10.60;99.90
39371;DHT22;25099;51.946;4.838;2022-12-20T12:17:58;10.60;99.90
39371;DHT22;25099;51.946;4.838;2022-12-20T12:26:23;10.60;99.90
39371;DHT22;25099;51.946;4.838;2022-12-20T12:28:54;10.60;99.90
39371;DHT22;25099;51.946;4.838;2022-12-20T12:31:38;10.60;99.90
39371;DHT22;25099;51.946;4.838;2022-12-20T12:34:29;10.60;99.90
39371;DHT22;25099;51.946;4.838;2022-12-20T12:40:15;10.60;99.90
39371;DHT22;25099;51.946;4.838;2022-12-20T12:47:54;10.60;99.90
39371;DHT22;25099;51.946;4.838;2022-12-20T12:50:31;10.60;99.90
39371;DHT22;25099;51.946;4.838;2022-12-20T12:53:05;10.60;99.90
39371;DHT22;25099;51.946;4.838;2022-12-20T12:55:37;10.50;99.90
39371;DHT22;25099;51.946;4.838;2022-12-20T13:03:40;10.60;99.90
39371;DHT22;25099;51.946;4.838;2022-12-20T13:11:34;10.60;99.90
39371;DHT22;25099;51.946;4.838;2022-12-20T13:16:46;10.50;99.90
39371;DHT22;25099;51.946;4.838;2022-12-20T13:25:00;10.60;99.90
39371;DHT22;25099;51.946;4.838;2022-12-20T13:27:38;10.60;99.90
39371;DHT22;25099;51.946;4.838;2022-12-20T13:32:55;10.60;99.90
39371;DHT22;25099;51.946;4.838;2022-12-20T13:42:57;10.50;99.90
39371;DHT22;25099;51.946;4.838;2022-12-20T13:45:26;10.50;99.90
39371;DHT22;25099;51.946;4.838;2022-12-20T13:47:55;10.50;99.90
39371;DHT22;25099;51.946;4.838;2022-12-20T13:50:26;10.60;99.90
39371;DHT22;25099;51.946;4.838;2022-12-20T13:52:53;10.60;99.90
39371;DHT22;25099;51.946;4.838;2022-12-20T13:55:37;10.60;99.90
39371;DHT22;25099;51.946;4.838;2022-12-20T13:58:06;10.60;99.90
39371;DHT22;25099;51.946;4.838;2022-12-20T14:00:32;10.60;99.90
39371;DHT22;25099;51.946;4.838;2022-12-20T14:03:00;10.60;99.90
39371;DHT22;25099;51.946;4.838;2022-12-20T14:05:31;10.60;99.90
39371;DHT22;25099;51.946;4.838;2022-12-20T14:10:30;10.60;99.90
39371;DHT22;25099;51.946;4.838;2022-12-20T14:12:56;10.60;99.90
39371;DHT22;25099;51.946;4.838;2022-12-20T14:15:31;10.60;99.90
39371;DHT22;25099;51.946;4.838;2022-12-20T14:20:45;10.50;99.90
39371;DHT22;25099;51.946;4.838;2022-12-20T14:23:24;10.50;99.90
39371;DHT22;25099;51.946;4.838;2022-12-20T14:25:59;10.50;99.90
39371;DHT22;25099;51.946;4.838;2022-12-20T14:28:41;10.40;99.90
39371;DHT22;25099;51.946;4.838;2022-12-20T14:31:27;10.40;99.90
39371;DHT22;25099;51.946;4.838;2022-12-20T14:36:31;10.40;99.90
39371;DHT22;25099;51.946;4.838;2022-12-20T14:38:58;10.40;99.90
39371;DHT22;25099;51.946;4.838;2022-12-20T14:41:36;10.50;99.90
39371;DHT22;25099;51.946;4.838;2022-12-20T14:44:24;10.50;99.90
39371;DHT22;25099;51.946;4.838;2022-12-20T14:46:50;10.50;99.90
39371;DHT22;25099;51.946;4.838;2022-12-20T14:49:34;10.40;99.90
39371;DHT22;25099;51.946;4.838;2022-12-20T14:55:36;10.50;99.90
39371;DHT22;25099;51.946;4.838;2022-12-20T14:57:56;10.50;99.90
39371;DHT22;25099;51.946;4.838;2022-12-20T15:00:29;10.40;99.90
39371;DHT22;25099;51.946;4.838;2022-12-20T15:13:40;10.20;99.90
39371;DHT22;25099;51.946;4.838;2022-12-20T15:16:24;10.20;99.90
39371;DHT22;25099;51.946;4.838;2022-12-20T15:19:01;10.20;99.90
39371;DHT22;25099;51.946;4.838;2022-12-20T15:21:31;10.20;99.90
39371;DHT22;25099;51.946;4.838;2022-12-20T15:24:01;10.10;99.90
39371;DHT22;25099;51.946;4.838;2022-12-20T15:26:28;10.10;99.90
39371;DHT22;25099;51.946;4.838;2022-12-20T15:28:55;10.10;99.90
39371;DHT22;25099;51.946;4.838;2022-12-20T15:31:22;10.20;99.90
39371;DHT22;25099;51.946;4.838;2022-12-20T15:33:49;10.10;99.90
39371;DHT22;25099;51.946;4.838;2022-12-20T15:36:16;10.00;99.90
39371;DHT22;25099;51.946;4.838;2022-12-20T15:38:42;10.20;99.90
39371;DHT22;25099;51.946;4.838;2022-12-20T15:41:26;10.10;99.90
39371;DHT22;25099;51.946;4.838;2022-12-20T15:44:06;10.10;99.90
39371;DHT22;25099;51.946;4.838;2022-12-20T15:46:35;10.10;99.90
39371;DHT22;25099;51.946;4.838;2022-12-20T15:49:01;10.20;99.90
39371;DHT22;25099;51.946;4.838;2022-12-20T15:51:31;10.20;99.90
39371;DHT22;25099;51.946;4.838;2022-12-20T15:53:58;10.20;99.90
39371;DHT22;25099;51.946;4.838;2022-12-20T15:56:25;10.20;99.90
39371;DHT22;25099;51.946;4.838;2022-12-20T15:58:51;10.20;99.90
39371;DHT22;25099;51.946;4.838;2022-12-20T16:01:20;10.20;99.90
39371;DHT22;25099;51.946;4.838;2022-12-20T16:03:46;10.20;99.90
39371;DHT22;25099;51.946;4.838;2022-12-20T16:06:12;10.20;99.90
39371;DHT22;25099;51.946;4.838;2022-12-20T16:08:39;10.20;99.90
39371;DHT22;25099;51.946;4.838;2022-12-20T16:11:28;10.10;99.90
39371;DHT22;25099;51.946;4.838;2022-12-20T16:13:55;10.10;99.90
39371;DHT22;25099;51.946;4.838;2022-12-20T16:16:23;10.10;99.90
39371;DHT22;25099;51.946;4.838;2022-12-20T16:18:49;10.10;99.90
39371;DHT22;25099;51.946;4.838;2022-12-20T16:21:20;10.10;99.90
39371;DHT22;25099;51.946;4.838;2022-12-20T16:23:46;10.10;99.90
39371;DHT22;25099;51.946;4.838;2022-12-20T16:26:17;10.10;99.90
39371;DHT22;25099;51.946;4.838;2022-12-20T16:28:44;10.10;99.90
39371;DHT22;25099;51.946;4.838;2022-12-20T16:33:42;10.00;99.90
39371;DHT22;25099;51.946;4.838;2022-12-20T16:36:11;10.10;99.90
39371;DHT22;25099;51.946;4.838;2022-12-20T16:38:37;10.10;99.90
39371;DHT22;25099;51.946;4.838;2022-12-20T16:41:14;10.00;99.90
39371;DHT22;25099;51.946;4.838;2022-12-20T16:43:40;10.00;99.90
39371;DHT22;25099;51.946;4.838;2022-12-20T16:46:13;10.00;99.90
39371;DHT22;25099;51.946;4.838;2022-12-20T16:48:41;10.00;99.90
39371;DHT22;25099;51.946;4.838;2022-12-20T16:51:22;10.00;99.90
39371;DHT22;25099;51.946;4.838;2022-12-20T16:53:53;10.00;99.90
39371;DHT22;25099;51.946;4.838;2022-12-20T16:56:19;10.00;99.90
39371;DHT22;25099;51.946;4.838;2022-12-20T16:58:45;10.00;99.90
39371;DHT22;25099;51.946;4.838;2022-12-20T17:01:36;10.00;99.90
39371;DHT22;25099;51.946;4.838;2022-12-20T17:04:03;9.90;99.90
39371;DHT22;25099;51.946;4.838;2022-12-20T17:06:29;9.90;99.90
39371;DHT22;25099;51.946;4.838;2022-12-20T17:08:55;10.00;99.90
39371;DHT22;25099;51.946;4.838;2022-12-20T17:11:27;10.00;99.90
39371;DHT22;25099;51.946;4.838;2022-12-20T17:13:55;10.00;99.90
39371;DHT22;25099;51.946;4.838;2022-12-20T17:16:21;10.00;99.90
39371;DHT22;25099;51.946;4.838;2022-12-20T17:18:49;10.00;99.90
39371;DHT22;25099;51.946;4.838;2022-12-20T17:23:48;10.00;99.90
39371;DHT22;25099;51.946;4.838;2022-12-20T17:26:17;10.00;99.90
39371;DHT22;25099;51.946;4.838;2022-12-20T17:28:44;10.00;99.90
39371;DHT22;25099;51.946;4.838;2022-12-20T17:31:38;10.00;99.90
39371;DHT22;25099;51.946;4.838;2022-12-20T17:34:06;10.00;99.90
39371;DHT22;25099;51.946;4.838;2022-12-20T17:36:32;10.00;99.90
39371;DHT22;25099;51.946;4.838;2022-12-20T17:38:57;10.00;99.90
39371;DHT22;25099;51.946;4.838;2022-12-20T17:41:28;10.10;99.90
39371;DHT22;25099;51.946;4.838;2022-12-20T17:43:55;10.10;99.90
39371;DHT22;25099;51.946;4.838;2022-12-20T17:46:22;10.10;99.90
39371;DHT22;25099;51.946;4.838;2022-12-20T17:48:48;10.10;99.90
39371;DHT22;25099;51.946;4.838;2022-12-20T17:53:42;10.00;99.90
39371;DHT22;25099;51.946;4.838;2022-12-20T17:56:13;10.00;99.90
39371;DHT22;25099;51.946;4.838;2022-12-20T17:58:41;9.90;99.90
39371;DHT22;25099;51.946;4.838;2022-12-20T18:03:43;9.90;99.90
39371;DHT22;25099;51.946;4.838;2022-12-20T18:06:08;9.90;99.90
39371;DHT22;25099;51.946;4.838;2022-12-20T18:08:34;9.90;99.90
39371;DHT22;25099;51.946;4.838;2022-12-20T18:11:00;9.90;99.90
39371;DHT22;25099;51.946;4.838;2022-12-20T18:13:26;9.90;99.90
39371;DHT22;25099;51.946;4.838;2022-12-20T18:15:51;9.90;99.90
39371;DHT22;25099;51.946;4.838;2022-12-20T18:18:17;9.90;99.90
39371;DHT22;25099;51.946;4.838;2022-12-20T18:20:42;9.90;99.90
39371;DHT22;25099;51.946;4.838;2022-12-20T18:23:08;9.90;99.90
39371;DHT22;25099;51.946;4.838;2022-12-20T18:25:40;9.90;99.90
39371;DHT22;25099;51.946;4.838;2022-12-20T18:28:06;10.00;99.90
39371;DHT22;25099;51.946;4.838;2022-12-20T18:30:32;10.00;99.90
39371;DHT22;25099;51.946;4.838;2022-12-20T18:32:57;9.90;99.90